createdAt,value
2018-02-16T00:03:52.530Z,96.70
2018-02-16T00:06:20.890Z,96.70
2018-02-16T00:08:50.132Z,96.70
2018-02-16T00:11:18.772Z,96.90
2018-02-16T00:13:47.501Z,96.80
2018-02-16T00:16:17.166Z,96.70
2018-02-16T00:18:45.590Z,96.70
2018-02-16T00:21:14.565Z,97.10
2018-02-16T00:23:42.999Z,97.50
2018-02-16T00:43:28.327Z,97.20
2018-02-16T00:45:56.481Z,97.20
2018-02-16T00:48:25.483Z,97.10
2018-02-16T00:50:53.690Z,97.00
2018-02-16T00:53:21.798Z,96.40
2018-02-16T00:55:51.218Z,96.50
2018-02-16T00:58:20.358Z,96.90
2018-02-16T01:00:49.794Z,96.70
2018-02-16T01:03:18.914Z,96.40
2018-02-16T01:23:05.779Z,95.90
2018-02-16T01:25:34.518Z,95.90
2018-02-16T01:28:03.794Z,96.10
2018-02-16T01:30:32.619Z,96.20
2018-02-16T01:33:00.811Z,96.30
2018-02-16T01:35:29.319Z,96.50
2018-02-16T01:37:58.226Z,96.60
2018-02-16T01:40:26.772Z,96.60
2018-02-16T01:42:55.237Z,96.70
2018-02-16T02:02:42.214Z,97.00
2018-02-16T02:05:11.251Z,97.30
2018-02-16T02:07:40.688Z,97.40
2018-02-16T02:10:09.287Z,97.40
2018-02-16T02:12:37.725Z,97.60
2018-02-16T02:15:06.541Z,97.50
2018-02-16T02:17:36.042Z,97.50
2018-02-16T02:20:04.925Z,97.40
2018-02-16T02:22:33.972Z,97.40
2018-02-16T02:42:20.640Z,97.00
2018-02-16T02:44:48.914Z,97.00
2018-02-16T02:47:17.399Z,96.90
2018-02-16T02:49:46.763Z,97.00
2018-02-16T02:52:15.919Z,97.00
2018-02-16T02:54:44.701Z,97.00
2018-02-16T02:57:13.977Z,96.90
2018-02-16T02:59:42.278Z,96.90
2018-02-16T03:02:12.030Z,96.90
2018-02-16T03:21:57.739Z,97.20
2018-02-16T03:24:27.021Z,97.20
2018-02-16T03:26:56.267Z,97.20
2018-02-16T03:29:24.412Z,97.10
2018-02-16T03:31:53.555Z,97.20
2018-02-16T03:34:22.376Z,97.10
2018-02-16T03:36:50.958Z,97.10
2018-02-16T03:39:20.985Z,97.10
2018-02-16T03:41:49.651Z,97.10
2018-02-16T04:01:35.129Z,97.10
2018-02-16T04:04:04.065Z,96.80
2018-02-16T04:06:33.503Z,96.90
2018-02-16T04:09:02.343Z,96.60
2018-02-16T04:11:30.754Z,96.60
2018-02-16T04:14:00.683Z,96.70
2018-02-16T04:16:29.315Z,96.60
2018-02-16T04:18:58.437Z,96.60
2018-02-16T04:21:27.292Z,96.60
2018-02-16T04:41:12.232Z,96.80
2018-02-16T04:43:41.938Z,97.10
2018-02-16T04:46:10.525Z,96.90
2018-02-16T04:48:39.246Z,96.90
2018-02-16T04:51:08.337Z,96.90
2018-02-16T04:53:36.932Z,96.90
2018-02-16T04:56:05.322Z,96.90
2018-02-16T04:58:33.807Z,97.00
2018-02-16T05:01:02.294Z,97.00
2018-02-16T05:20:48.144Z,97.10
2018-02-16T05:23:16.992Z,97.10
2018-02-16T05:25:45.161Z,97.10
2018-02-16T05:28:15.424Z,97.10
2018-02-16T05:30:44.498Z,97.10
2018-02-16T05:33:12.665Z,97.00
2018-02-16T05:35:41.020Z,97.10
2018-02-16T05:38:09.391Z,97.00
2018-02-16T05:40:37.930Z,97.10
2018-02-16T06:00:23.618Z,97.10
2018-02-16T06:02:52.286Z,97.10
2018-02-16T06:05:22.350Z,97.30
2018-02-16T06:07:50.622Z,97.30
2018-02-16T06:10:20.095Z,97.60
2018-02-16T06:12:48.608Z,97.30
2018-02-16T06:15:17.884Z,97.30
2018-02-16T06:17:46.443Z,97.40
2018-02-16T06:20:14.995Z,97.30
2018-02-16T06:40:00.216Z,96.70
2018-02-16T06:42:30.025Z,96.70
2018-02-16T06:44:58.967Z,96.90
2018-02-16T06:47:27.227Z,96.90
2018-02-16T06:49:56.207Z,96.90
2018-02-16T06:52:25.177Z,97.00
2018-02-16T06:54:54.112Z,97.00
2018-02-16T06:57:23.432Z,97.10
2018-02-16T06:59:52.518Z,97.00
2018-02-16T07:19:38.171Z,96.50
2018-02-16T07:22:07.575Z,96.70
2018-02-16T07:24:36.471Z,96.50
2018-02-16T07:27:06.095Z,96.40
2018-02-16T07:29:34.283Z,96.40
2018-02-16T07:32:03.256Z,96.10
2018-02-16T07:34:32.218Z,96.20
2018-02-16T07:37:01.098Z,95.90
2018-02-16T07:39:29.836Z,95.70
2018-02-16T07:59:15.352Z,95.30
2018-02-16T08:01:43.887Z,94.90
2018-02-16T08:04:13.543Z,95.00
2018-02-16T08:06:43.183Z,94.70
2018-02-16T08:09:11.730Z,94.80
2018-02-16T08:11:39.837Z,94.50
2018-02-16T08:14:08.584Z,94.60
2018-02-16T08:16:37.322Z,94.40
2018-02-16T08:19:06.109Z,94.30
2018-02-16T08:38:51.079Z,93.30
2018-02-16T08:41:19.972Z,93.30
2018-02-16T08:43:48.791Z,93.40
2018-02-16T08:46:17.486Z,93.50
2018-02-16T08:48:46.614Z,93.70
2018-02-16T08:51:15.100Z,93.80
2018-02-16T08:53:44.520Z,93.70
2018-02-16T08:56:13.649Z,93.70
2018-02-16T08:58:42.111Z,93.90
2018-02-16T09:18:27.455Z,93.20
2018-02-16T09:20:56.257Z,92.80
2018-02-16T09:23:25.787Z,93.20
2018-02-16T09:25:54.574Z,93.10
2018-02-16T09:28:23.859Z,93.00
2018-02-16T09:30:53.003Z,92.50
2018-02-16T09:33:21.887Z,92.50
2018-02-16T09:35:51.265Z,92.70
2018-02-16T09:38:19.580Z,92.90
2018-02-16T09:58:05.339Z,91.30
2018-02-16T10:00:34.005Z,90.70
2018-02-16T10:03:03.587Z,90.40
2018-02-16T10:05:33.005Z,90.70
2018-02-16T10:08:02.495Z,90.90
2018-02-16T10:10:31.045Z,90.60
2018-02-16T10:13:00.872Z,89.80
2018-02-16T10:15:29.185Z,89.40
2018-02-16T10:17:57.868Z,89.80
2018-02-16T10:37:42.718Z,89.20
2018-02-16T10:40:12.964Z,88.60
2018-02-16T10:42:42.257Z,89.70
2018-02-16T10:45:10.744Z,89.40
2018-02-16T10:47:39.096Z,88.00
2018-02-16T10:50:07.453Z,87.90
2018-02-16T10:52:36.086Z,88.10
2018-02-16T10:55:06.212Z,88.20
2018-02-16T10:57:35.286Z,86.70
2018-02-16T11:17:19.554Z,82.70
2018-02-16T11:19:49.605Z,81.80
2018-02-16T11:22:18.783Z,81.40
2018-02-16T11:24:47.102Z,82.60
2018-02-16T11:27:16.143Z,82.30
2018-02-16T11:29:44.861Z,82.10
2018-02-16T11:32:13.454Z,82.90
2018-02-16T11:34:42.478Z,85.40
2018-02-16T11:37:12.061Z,85.30
2018-02-16T11:56:56.612Z,81.80
2018-02-16T11:59:25.975Z,80.40
2018-02-16T12:01:54.426Z,80.30
2018-02-16T12:04:23.566Z,80.40
2018-02-16T12:06:52.704Z,79.40
2018-02-16T12:09:21.266Z,79.20
2018-02-16T12:11:49.928Z,81.30
2018-02-16T12:14:18.893Z,80.10
2018-02-16T12:16:47.580Z,80.50
2018-02-16T12:36:34.306Z,78.50
2018-02-16T12:39:02.381Z,79.20
2018-02-16T12:41:31.729Z,79.30
2018-02-16T12:44:01.039Z,79.20
2018-02-16T12:46:29.710Z,79.70
2018-02-16T12:48:58.409Z,80.20
2018-02-16T12:51:26.508Z,78.50
2018-02-16T12:53:55.514Z,79.20
2018-02-16T12:56:24.369Z,80.10
2018-02-16T13:16:10.596Z,80.20
2018-02-16T13:18:39.884Z,79.70
2018-02-16T13:21:08.822Z,81.00
2018-02-16T13:23:37.522Z,81.30
2018-02-16T13:26:06.949Z,81.70
2018-02-16T13:28:35.552Z,82.80
2018-02-16T13:31:04.234Z,84.70
2018-02-16T13:33:33.627Z,84.00
2018-02-16T13:36:02.588Z,83.60
2018-02-16T13:55:47.247Z,81.00
2018-02-16T13:58:15.324Z,82.30
2018-02-16T14:00:43.833Z,81.20
2018-02-16T14:03:12.543Z,81.80
2018-02-16T14:05:41.954Z,82.20
2018-02-16T14:08:10.135Z,81.80
2018-02-16T14:10:38.803Z,81.80
2018-02-16T14:13:08.414Z,82.40
2018-02-16T14:15:36.849Z,82.40
2018-02-16T14:35:22.047Z,77.80
2018-02-16T14:37:51.012Z,78.50
2018-02-16T14:40:20.042Z,77.30
2018-02-16T14:42:48.650Z,77.60
2018-02-16T14:45:17.635Z,77.60
2018-02-16T14:47:46.816Z,79.00
2018-02-16T14:50:14.988Z,77.60
2018-02-16T14:52:43.152Z,76.80
2018-02-16T14:55:12.212Z,76.40
2018-02-16T15:14:56.834Z,75.60
2018-02-16T15:17:24.761Z,77.30
2018-02-16T15:19:54.235Z,77.80
2018-02-16T15:22:22.974Z,78.40
2018-02-16T15:24:51.412Z,79.20
2018-02-16T15:27:20.506Z,80.70
2018-02-16T15:29:49.478Z,79.90
2018-02-16T15:32:18.378Z,79.40
2018-02-16T15:34:47.259Z,79.30
2018-02-16T15:54:34.444Z,79.00
2018-02-16T15:57:04.212Z,79.20
2018-02-16T15:59:32.710Z,78.70
2018-02-16T16:02:01.565Z,79.30
2018-02-16T16:04:31.343Z,79.70
2018-02-16T16:07:00.497Z,79.80
2018-02-16T16:09:30.501Z,78.60
2018-02-16T16:12:00.009Z,78.50
2018-02-16T16:14:29.650Z,80.60
2018-02-16T16:34:14.625Z,83.80
2018-02-16T16:36:44.185Z,83.70
2018-02-16T16:39:12.842Z,83.30
2018-02-16T16:41:43.556Z,84.20
2018-02-16T16:44:12.217Z,84.50
2018-02-16T16:46:40.563Z,85.00
2018-02-16T16:49:09.064Z,85.70
2018-02-16T16:51:39.084Z,85.00
2018-02-16T16:54:08.280Z,85.40
2018-02-16T17:13:53.233Z,84.60
2018-02-16T17:16:22.231Z,84.00
2018-02-16T17:18:50.760Z,83.70
2018-02-16T17:21:19.242Z,84.40
2018-02-16T17:23:47.790Z,85.10
2018-02-16T17:26:16.602Z,85.30
2018-02-16T17:28:46.934Z,85.50
2018-02-16T17:31:15.178Z,85.50
2018-02-16T17:33:43.884Z,85.90
2018-02-16T17:53:29.637Z,86.40
2018-02-16T17:55:58.293Z,86.50
2018-02-16T17:58:27.051Z,86.90
2018-02-16T18:00:55.689Z,86.70
2018-02-16T18:03:25.064Z,86.50
2018-02-16T18:05:53.764Z,86.30
2018-02-16T18:08:22.619Z,86.70
2018-02-16T18:10:51.998Z,87.20
2018-02-16T18:13:21.396Z,88.10
2018-02-16T18:33:10.069Z,87.40
2018-02-16T18:35:38.482Z,87.70
2018-02-16T18:38:08.852Z,87.80
2018-02-16T18:40:37.683Z,88.50
2018-02-16T18:43:06.756Z,89.40
2018-02-16T18:45:35.675Z,89.40
2018-02-16T18:48:04.742Z,90.20
2018-02-16T18:50:34.127Z,90.20
2018-02-16T18:53:03.661Z,90.10
2018-02-16T19:12:47.904Z,91.00
2018-02-16T19:15:17.753Z,91.40
2018-02-16T19:17:46.460Z,91.50
2018-02-16T19:20:15.122Z,91.60
2018-02-16T19:22:44.049Z,91.70
2018-02-16T19:25:13.812Z,92.00
2018-02-16T19:27:42.235Z,92.40
2018-02-16T19:30:11.087Z,92.50
2018-02-16T19:32:40.014Z,92.40
2018-02-16T19:52:24.857Z,92.50
2018-02-16T19:54:54.095Z,92.50
2018-02-16T19:57:22.450Z,92.50
2018-02-16T19:59:51.216Z,92.60
2018-02-16T20:02:20.411Z,92.80
2018-02-16T20:04:49.799Z,92.80
2018-02-16T20:07:18.038Z,92.80
2018-02-16T20:09:47.707Z,92.70
2018-02-16T20:12:16.312Z,92.80
2018-02-16T20:32:02.496Z,93.60
2018-02-16T20:34:30.609Z,93.80
2018-02-16T20:36:59.336Z,94.40
2018-02-16T20:39:28.056Z,94.20
2018-02-16T20:41:57.618Z,94.40
2018-02-16T20:44:25.803Z,94.40
2018-02-16T20:46:55.346Z,94.40
2018-02-16T20:49:24.436Z,94.50
2018-02-16T20:51:53.503Z,94.50
2018-02-16T21:11:39.149Z,94.00
2018-02-16T21:14:08.203Z,94.00
2018-02-16T21:16:36.885Z,93.90
2018-02-16T21:19:05.774Z,93.70
2018-02-16T21:21:35.647Z,93.70
2018-02-16T21:24:03.870Z,93.60
2018-02-16T21:26:32.850Z,93.50
2018-02-16T21:29:02.699Z,93.50
2018-02-16T21:31:32.372Z,93.50
2018-02-16T21:51:19.258Z,93.00
2018-02-16T21:53:47.986Z,93.00
2018-02-16T21:56:17.511Z,92.70
2018-02-16T21:58:45.760Z,92.70
2018-02-16T22:01:15.787Z,92.80
2018-02-16T22:03:44.924Z,92.50
2018-02-16T22:06:14.236Z,92.50
2018-02-16T22:08:42.860Z,92.40
2018-02-16T22:11:11.612Z,92.20
2018-02-16T22:30:55.864Z,91.70
2018-02-16T22:33:25.129Z,91.70
2018-02-16T22:35:53.640Z,91.60
2018-02-16T22:38:22.405Z,91.60
2018-02-16T22:40:50.584Z,91.70
2018-02-16T22:43:21.121Z,91.80
2018-02-16T22:45:50.590Z,91.90
2018-02-16T22:48:18.820Z,92.10
2018-02-16T22:50:47.591Z,91.90
2018-02-16T23:10:33.907Z,92.40
2018-02-16T23:13:02.950Z,92.40
2018-02-16T23:15:31.803Z,92.60
2018-02-16T23:18:00.530Z,92.50
2018-02-16T23:20:29.056Z,92.50
2018-02-16T23:22:57.586Z,92.40
2018-02-16T23:25:26.281Z,92.40
2018-02-16T23:27:56.332Z,92.40
2018-02-16T23:30:25.174Z,92.30
2018-02-16T23:50:09.721Z,92.00
2018-02-16T23:52:38.236Z,92.00
2018-02-16T23:55:06.709Z,91.90
2018-02-16T23:57:35.892Z,91.80
